Port Alice, Canada
Current Conditions -  °F | °C
As of 6:00 PM on Tuesday 21 Oct 2014 (Local Time) from CYZT Reporting Station
Rain Showers Rain Showers  
Wind Chill: 52°   Ceiling: 4300
Heat Index: 52°   Visibility: 10mi
Dew Point: 50°   Wind: 7mph
Humidity: 94%   Direction: 140°SE
Pressure: 29.53"   Gusts: NA
Location:  50.38°N, 127.43°W
Report Text: CYZT 220100Z 14006KT 10SM -SHRA FEW025 BKN043 OVC060 11/10 A2953 RMK SC2SC4SC2 SLP999
Loading
Personal Weather Stations






























Interactive Weather Map
Tropical Storm Tracking
New forecast layout! Learn more

10-Day Weather Forecast

Advertisements
Track Severe Weather on mobile